Time;durP1;ratioP1;P1;durP2;ratioP2;P2;SDS_P1;SDS_P2;PMS_P1;PMS_P2;Temp;Humidity;BMP_temperature;BMP_pressure;BME280_temperature;BME280_humidity;BME280_pressure;Samples;Min_cycle;Max_cycle;Signal;HPM_P1;HPM_P2
2021/11/12 00:12:25;;;;;;;23.95;9.90;;;;;;;1.91;96.73;97918.66;4947461;28;20150;-59
2021/11/12 00:14:48;;;;;;;15.23;7.63;;;;;;;1.73;96.52;97873.00;4947437;29;20069;-58
2021/11/12 00:17:16;;;;;;;17.77;7.10;;;;;;;1.62;96.00;97849.66;4947069;29;20526;-60
2021/11/12 00:19:43;;;;;;;15.30;6.32;;;;;;;1.81;96.65;97889.53;4947217;29;20143;-62
2021/11/12 00:22:11;;;;;;;15.23;6.50;;;;;;;1.13;95.54;97777.16;4946935;28;20051;-60
2021/11/12 00:24:39;;;;;;;11.20;5.35;;;;;;;1.56;95.02;97863.38;4947423;29;20058;-59
2021/11/12 00:27:07;;;;;;;12.88;5.60;;;;;;;1.89;95.51;97926.31;4946983;29;20138;-58
2021/11/12 00:35:18;;;;;;;16.48;7.50;;;;;;;1.85;95.84;97904.22;4946953;29;20051;-60
2021/11/12 00:40:21;;;;;;;14.35;6.80;;;;;;;1.85;96.94;97903.44;4946877;29;20134;-59
2021/11/12 00:45:35;;;;;;;22.20;9.65;;;;;;;1.37;97.33;97837.97;4946463;29;20058;-60
2021/11/12 00:55:42;;;;;;;20.23;8.50;;;;;;;1.79;97.61;97899.16;4947112;29;20047;-59
2021/11/12 00:58:13;;;;;;;20.55;10.05;;;;;;;1.80;96.68;97895.31;4946989;28;20055;-59
2021/11/12 01:00:44;;;;;;;23.60;9.70;;;;;;;1.83;97.15;97883.78;4946558;29;20051;-59
2021/11/12 01:03:12;;;;;;;24.00;9.20;;;;;;;1.86;96.26;97888.66;4946529;29;20062;-60
2021/11/12 01:05:39;;;;;;;23.48;8.93;;;;;;;1.27;96.40;97791.72;4944589;28;20059;-61
2021/11/12 01:08:08;;;;;;;14.43;7.45;;;;;;;1.90;95.66;97878.78;4946866;29;20146;-59
2021/11/12 01:10:35;;;;;;;16.25;6.25;;;;;;;1.48;94.93;97808.63;4946729;29;20130;-60
2021/11/12 01:13:03;;;;;;;11.82;6.00;;;;;;;1.87;95.04;97879.34;4946518;29;20126;-59
2021/11/12 01:15:30;;;;;;;11.70;6.10;;;;;;;1.85;95.13;97887.03;4946280;29;20138;-59
2021/11/12 01:17:56;;;;;;;14.52;6.32;;;;;;;1.81;95.03;97877.81;4946429;28;20579;-59
2021/11/12 01:20:23;;;;;;;14.50;6.25;;;;;;;1.72;96.16;97876.84;4946033;29;20084;-59
2021/11/12 01:22:50;;;;;;;13.07;5.50;;;;;;;1.56;96.23;97868.03;4945983;28;20061;-60
2021/11/12 01:25:20;;;;;;;16.38;7.07;;;;;;;1.78;95.64;97871.03;4946292;29;20151;-59
2021/11/12 01:27:47;;;;;;;12.45;6.38;;;;;;;1.21;95.66;97776.50;4946139;28;20051;-59
2021/11/12 01:30:16;;;;;;;15.02;6.68;;;;;;;1.69;95.18;97867.31;4945951;29;20063;-59
2021/11/12 01:32:44;;;;;;;12.00;5.93;;;;;;;1.69;95.23;97858.31;4945417;28;20062;-58
2021/11/12 01:35:12;;;;;;;13.30;7.18;;;;;;;1.17;94.28;97783.63;4945619;29;20051;-59
2021/11/12 01:37:43;;;;;;;12.35;5.85;;;;;;;1.60;94.65;97868.28;4945628;28;20113;-61
2021/11/12 01:40:18;;;;;;;12.32;5.68;;;;;;;1.36;95.25;97809.03;4944699;29;20055;-59
2021/11/12 01:43:11;;;;;;;12.52;5.90;;;;;;;1.63;95.00;97854.03;4945943;29;20515;-58
2021/11/12 01:48:35;;;;;;;16.13;5.72;;;;;;;1.61;96.10;97848.03;4945543;29;20066;-61
2021/11/12 02:01:51;;;;;;;16.88;5.53;;;;;;;1.44;97.07;97835.69;4945127;28;20057;-61
2021/11/12 02:04:30;;;;;;;14.73;6.30;;;;;;;1.42;97.27;97832.44;4945963;29;20054;-61
2021/11/12 02:06:58;;;;;;;10.93;5.80;;;;;;;0.54;97.70;97680.56;4943951;29;20063;-62
2021/11/12 02:09:27;;;;;;;12.30;6.60;;;;;;;1.48;96.40;97817.63;4946014;29;20059;-61
2021/11/12 02:12:04;;;;;;;10.98;5.20;;;;;;;1.48;96.67;97823.09;4945338;28;20066;-61
2021/11/12 02:14:31;;;;;;;10.05;5.22;;;;;;;1.41;97.28;97822.63;4945644;29;20055;-62
2021/11/12 02:17:05;;;;;;;12.65;5.88;;;;;;;0.77;97.64;97729.59;4945617;28;20058;-61
2021/11/12 02:19:34;;;;;;;11.68;5.18;;;;;;;1.48;98.11;97823.09;4949453;29;20062;-61
2021/11/12 02:22:13;;;;;;;10.65;5.30;;;;;;;1.43;97.79;97817.69;4949093;28;20315;-61
2021/11/12 02:24:56;;;;;;;11.55;5.15;;;;;;;1.41;98.43;97819.91;4948378;28;20055;-62
2021/11/12 02:27:28;;;;;;;11.30;5.93;;;;;;;1.45;98.26;97818.19;4949574;29;20434;-61
2021/11/12 02:29:56;;;;;;;17.98;5.88;;;;;;;1.32;98.35;97813.47;4949556;29;20426;-61
2021/11/12 02:32:26;;;;;;;11.02;5.30;;;;;;;1.06;98.29;97803.16;4948795;29;20051;-61
2021/11/12 02:34:59;;;;;;;9.73;5.22;;;;;;;0.93;98.98;97795.69;4948996;29;20447;-61
2021/11/12 02:37:27;;;;;;;;;;;;;;;1.13;99.78;97820.81;4949440;29;20055;-61
2021/11/12 02:39:54;;;;;;;9.05;4.60;;;;;;;1.12;99.43;97813.72;4947666;28;20294;-61
2021/11/12 02:42:23;;;;;;;14.38;5.75;;;;;;;1.23;98.17;97814.41;4948487;29;20499;-61
2021/11/12 02:44:50;;;;;;;16.80;8.45;;;;;;;1.20;97.20;97810.34;4947768;29;20047;-61
2021/11/12 02:47:18;;;;;;;43.35;17.98;;;;;;;1.11;95.88;97814.00;4949122;28;20503;-62
2021/11/12 02:49:46;;;;;;;53.47;25.17;;;;;;;1.23;94.58;97809.75;4949060;29;20095;-61
2021/11/12 02:52:17;;;;;;;37.25;15.48;;;;;;;1.18;94.81;97872.59;4948340;29;20519;-61
2021/11/12 02:54:45;;;;;;;29.70;14.48;;;;;;;0.89;95.54;97760.00;4948307;28;20051;-61
2021/11/12 02:57:12;;;;;;;21.63;10.65;;;;;;;0.83;96.83;97746.69;4948562;29;20574;-61
2021/11/12 02:59:39;;;;;;;13.32;6.32;;;;;;;1.17;97.51;97804.69;4948600;29;20055;-61
2021/11/12 03:02:08;;;;;;;17.17;6.13;;;;;;;0.73;97.59;97712.19;4946861;29;20154;-60
2021/11/12 03:04:35;;;;;;;12.40;6.43;;;;;;;1.20;97.55;97796.69;4947302;29;20059;-60
2021/11/12 03:07:03;;;;;;;13.27;5.78;;;;;;;0.66;96.85;97694.56;4948818;28;20109;-61
2021/11/12 03:09:31;;;;;;;20.48;8.30;;;;;;;1.23;96.31;97792.59;4948087;29;20085;-61
2021/11/12 03:11:59;;;;;;;22.45;8.07;;;;;;;1.25;96.56;97802.09;4948025;29;20069;-61
2021/11/12 03:14:28;;;;;;;15.30;6.72;;;;;;;0.97;96.07;97764.81;4948394;28;20438;-61
2021/11/12 03:16:56;;;;;;;18.38;7.15;;;;;;;0.75;97.21;97731.81;4948119;29;20051;-61
2021/11/12 03:19:27;;;;;;;13.82;6.68;;;;;;;0.51;97.25;97665.59;4948187;29;20066;-60
2021/11/12 03:22:01;;;;;;;9.98;5.60;;;;;;;0.92;99.69;97772.22;4947144;29;20434;-61
2021/11/12 04:07:32;;;;;;;12.93;6.10;;;;;;;1.05;97.44;97739.63;4928433;29;20191;-60
2021/11/12 05:51:40;;;;;;;18.30;9.60;;;;;;;0.55;94.98;97552.19;4945075;28;20055;-63
2021/11/12 05:56:56;;;;;;;124.15;47.33;;;;;;;1.43;93.06;97662.13;4945446;28;20091;-64
2021/11/12 05:59:23;;;;;;;117.03;45.28;;;;;;;1.80;91.19;97698.66;4945386;29;20058;-64
2021/11/12 06:01:51;;;;;;;118.30;43.30;;;;;;;-0.36;90.70;97328.50;4945118;29;20118;-64
2021/11/12 06:04:20;;;;;;;107.30;44.78;;;;;;;2.12;90.79;97702.19;4945595;29;20082;-64
2021/11/12 06:06:47;;;;;;;35.60;16.60;;;;;;;2.42;91.15;97714.53;4945949;28;20055;-64
2021/11/12 06:09:14;;;;;;;31.95;13.15;;;;;;;2.47;91.53;97714.41;4945882;29;20047;-64
2021/11/12 06:11:42;;;;;;;33.30;12.60;;;;;;;2.55;92.09;97686.38;4945162;29;20070;-63
2021/11/12 06:14:10;;;;;;;28.73;13.88;;;;;;;2.21;91.33;97601.22;4945836;29;20110;-64
2021/11/12 06:16:37;;;;;;;32.72;14.38;;;;;;;3.05;89.93;97690.81;4943450;29;20055;-65
2021/11/12 06:19:04;;;;;;;31.25;14.40;;;;;;;2.91;89.37;97657.19;4945479;29;20513;-65
2021/11/12 06:21:32;;;;;;;27.30;12.57;;;;;;;3.32;88.92;97690.75;4944846;29;20051;-65
2021/11/12 06:23:58;;;;;;;26.98;10.70;;;;;;;3.61;88.45;97712.28;4945677;28;20063;-65
2021/11/12 06:26:25;;;;;;;23.60;12.10;;;;;;;3.63;86.90;97704.56;4943935;29;20051;-66
2021/11/12 06:28:53;;;;;;;18.00;8.77;;;;;;;3.72;87.18;97719.13;4936092;29;20069;-65
2021/11/12 06:31:21;;;;;;;30.77;14.30;;;;;;;3.42;87.40;97635.75;4935773;29;20062;-64
2021/11/12 06:33:49;;;;;;;24.02;14.43;;;;;;;3.83;86.74;97650.09;4934730;28;20478;-63
2021/11/12 06:36:18;;;;;;;30.58;15.73;;;;;;;4.20;86.02;97704.53;4936675;28;20058;-64
2021/11/12 06:38:45;;;;;;;27.42;15.57;;;;;;;4.30;85.52;97682.31;4944789;28;20062;-64
2021/11/12 06:41:14;;;;;;;28.10;15.15;;;;;;;3.91;83.91;97586.31;4944890;28;20047;-64
2021/11/12 06:43:52;;;;;;;29.20;15.52;;;;;;;4.78;82.30;97698.00;4945270;28;20150;-65
2021/11/12 06:49:29;;;;;;;31.50;16.67;;;;;;;5.03;82.07;97700.03;4945426;28;20105;-64
2021/11/12 06:51:57;;;;;;;23.98;12.32;;;;;;;5.02;80.22;97676.47;4944304;29;20055;-65
2021/11/12 06:54:24;;;;;;;28.08;14.38;;;;;;;5.33;79.68;97705.47;4943439;29;20055;-67
2021/11/12 06:56:51;;;;;;;28.25;14.00;;;;;;;5.15;80.15;97670.03;4929604;29;20146;-62
2021/11/12 06:59:19;;;;;;;34.13;14.93;;;;;;;4.72;79.34;97526.41;4937636;29;20054;-64
2021/11/12 07:01:48;;;;;;;23.45;12.10;;;;;;;5.57;78.01;97644.56;4936169;29;20960;-60
2021/11/12 07:04:15;;;;;;;18.48;11.82;;;;;;;5.81;76.65;97686.09;4945043;29;20126;-62
2021/11/12 07:06:42;;;;;;;22.08;11.13;;;;;;;4.20;78.88;97485.19;4946819;28;20126;-70
2021/11/12 07:09:09;;;;;;;25.73;12.68;;;;;;;5.00;79.61;97607.34;4948064;28;20130;-63
2021/11/12 07:11:36;;;;;;;28.65;13.50;;;;;;;5.80;79.31;97679.00;4947763;29;20055;-64
2021/11/12 07:14:04;;;;;;;28.00;14.15;;;;;;;5.46;78.06;97571.81;4948181;28;20454;-63
2021/11/12 07:16:32;;;;;;;27.65;14.38;;;;;;;5.12;76.00;97508.69;4947638;28;20138;-63
2021/11/12 07:19:00;;;;;;;28.13;12.38;;;;;;;6.28;76.27;97626.50;4946622;28;20047;-63
2021/11/12 07:21:28;;;;;;;23.33;12.10;;;;;;;6.80;75.97;97666.47;4947219;29;20051;-64
2021/11/12 07:24:00;;;;;;;21.60;11.68;;;;;;;6.75;74.61;97625.38;4948179;29;20098;-63
2021/11/12 07:26:28;;;;;;;21.17;10.32;;;;;;;7.22;74.78;97666.25;4961926;28;20498;-64
2021/11/12 07:28:55;;;;;;;19.38;11.55;;;;;;;6.70;73.69;97593.31;4947613;29;20162;-65
2021/11/12 07:31:40;;;;;;;19.40;10.38;;;;;;;7.52;73.50;97659.56;4945721;29;20085;-64
2021/11/12 07:34:07;;;;;;;13.30;6.45;;;;;;;7.11;74.80;97634.72;4961984;28;20086;-66
2021/11/12 07:36:40;;;;;;;14.75;8.32;;;;;;;7.22;75.62;97641.44;4946247;29;20055;-65
2021/11/12 07:47:10;;;;;;;10.60;5.72;;;;;;;7.09;78.43;97650.78;4947266;28;20062;-65
2021/11/12 07:49:41;;;;;;;11.55;6.45;;;;;;;6.75;78.45;97645.44;4947784;29;20058;-66
2021/11/12 07:52:10;;;;;;;13.90;7.35;;;;;;;6.43;82.40;97624.06;4943716;28;20051;-64
2021/11/12 07:54:46;;;;;;;12.95;8.27;;;;;;;4.78;80.60;97276.25;4934777;29;20542;-64
2021/11/12 07:57:13;;;;;;;12.77;6.60;;;;;;;6.63;84.16;97648.09;4949176;28;20126;-64
2021/11/12 07:59:40;;;;;;;19.67;8.68;;;;;;;6.84;84.61;97648.16;4948288;28;20134;-65
2021/11/12 08:02:08;;;;;;;22.95;9.15;;;;;;;7.05;83.65;97640.78;4947044;28;20055;-65
2021/11/12 08:04:36;;;;;;;15.10;7.63;;;;;;;7.40;82.23;97647.66;4946035;29;20534;-66
2021/11/12 08:07:04;;;;;;;15.23;6.63;;;;;;;7.87;79.88;97656.53;4945361;29;20051;-65
2021/11/12 08:12:06;;;;;;;;;;;;;;;7.87;78.24;97645.50;4941966;28;20134;-66
2021/11/12 08:19:53;;;;;;;13.50;6.43;;;;;;;7.08;83.55;97591.31;4938815;28;20047;-66
2021/11/12 08:22:28;;;;;;;13.43;6.05;;;;;;;7.33;83.58;97604.09;4946810;29;20051;-63
2021/11/12 08:29:57;;;;;;;19.15;7.57;;;;;;;8.16;80.09;97559.84;4946462;29;20055;-65
2021/11/12 08:35:43;;;;;;;11.85;5.40;;;;;;;7.79;79.24;97475.41;4924171;29;20078;-64
2021/11/12 08:38:18;;;;;;;12.23;6.05;;;;;;;9.00;77.13;97645.56;4925873;29;20047;-64
2021/11/12 08:40:54;;;;;;;6.78;3.42;;;;;;;8.49;74.61;97538.50;4925713;29;20053;-64
2021/11/12 08:43:34;;;;;;;13.88;7.45;;;;;;;9.12;76.53;97626.19;4925888;28;20059;-66
2021/11/12 08:46:09;;;;;;;10.35;5.20;;;;;;;6.66;75.54;97237.31;4936023;29;20071;-67
2021/11/12 08:48:56;;;;;;;20.17;5.78;;;;;;;9.34;75.00;97631.28;4945831;29;20063;-66
2021/11/12 08:51:26;;;;;;;7.97;4.57;;;;;;;9.85;71.48;97624.91;4960268;28;20051;-67
2021/11/12 08:53:53;;;;;;;8.65;4.30;;;;;;;8.88;72.00;97530.31;4942532;29;20075;-65
2021/11/12 08:56:22;;;;;;;11.55;5.60;;;;;;;7.59;72.86;97282.16;4938405;29;20051;-67
2021/11/12 08:58:51;;;;;;;10.85;5.20;;;;;;;9.64;69.71;97552.34;4943712;29;20055;-66
2021/11/12 09:01:18;;;;;;;10.32;4.93;;;;;;;9.87;69.50;97542.34;4930345;29;20055;-67
2021/11/12 09:03:46;;;;;;;9.32;4.70;;;;;;;9.61;69.37;97561.34;4935479;28;20114;-64
2021/11/12 09:06:14;;;;;;;11.13;5.47;;;;;;;9.62;69.36;97518.72;4942867;28;20100;-64
2021/11/12 09:08:41;;;;;;;16.10;5.50;;;;;;;10.57;67.97;97610.72;4934252;29;20047;-64
2021/11/12 09:11:09;;;;;;;7.70;4.95;;;;;;;10.90;66.96;97612.34;4933840;29;20070;-62
2021/11/12 09:13:58;;;;;;;9.70;4.65;;;;;;;10.88;65.26;97614.66;4932684;29;20495;-63
2021/11/12 09:16:33;;;;;;;11.32;9.30;;;;;;;11.06;64.38;97627.00;4946515;28;20074;-66
2021/11/12 09:19:03;;;;;;;7.85;4.57;;;;;;;10.98;62.96;97558.69;4935705;29;20048;-65
2021/11/12 09:21:32;;;;;;;9.35;4.82;;;;;;;11.26;64.47;97606.47;4926651;29;20064;-63
2021/11/12 09:24:00;;;;;;;15.18;6.63;;;;;;;11.68;63.09;97593.59;4945013;29;20059;-64
2021/11/12 09:26:26;;;;;;;9.18;4.80;;;;;;;11.97;61.23;97595.78;4945268;28;20062;-62
2021/11/12 09:28:53;;;;;;;10.05;4.70;;;;;;;12.11;59.60;97596.06;4939997;29;20050;-64
2021/11/12 09:31:20;;;;;;;9.02;5.32;;;;;;;11.84;59.09;97508.25;4942666;28;20780;-66
2021/11/12 09:33:47;;;;;;;10.68;5.03;;;;;;;10.51;60.77;97556.75;4944542;28;20145;-64
2021/11/12 09:36:14;;;;;;;17.38;6.47;;;;;;;11.56;60.90;97527.91;4944040;29;20055;-69
2021/11/12 09:38:43;;;;;;;11.40;6.18;;;;;;;12.42;60.13;97590.34;4945392;28;20264;-67
2021/11/12 09:41:11;;;;;;;7.97;4.47;;;;;;;11.86;60.34;97550.34;4945149;29;20517;-68
2021/11/12 09:43:39;;;;;;;9.27;4.78;;;;;;;12.06;60.84;97574.16;4942781;29;20110;-70
2021/11/12 09:46:06;;;;;;;51.88;20.88;;;;;;;12.22;59.84;97530.41;4944306;28;20051;-61
2021/11/12 09:48:34;;;;;;;10.13;5.43;;;;;;;12.24;59.26;97583.63;4944670;28;20141;-66
2021/11/12 09:51:01;;;;;;;11.50;6.25;;;;;;;12.39;59.54;97568.84;4939738;28;20114;-68
2021/11/12 09:53:28;;;;;;;15.60;7.43;;;;;;;11.67;58.25;97417.16;4943445;28;20113;-69
2021/11/12 09:55:55;;;;;;;13.55;7.50;;;;;;;11.74;60.19;97520.78;4938095;28;20051;-61
2021/11/12 09:58:22;;;;;;;15.20;7.63;;;;;;;10.91;61.31;97359.75;4945632;28;20131;-64
2021/11/12 10:00:58;;;;;;;8.40;5.00;;;;;;;12.57;59.31;97558.03;4943003;28;20051;-62
2021/11/12 10:03:44;;;;;;;9.65;4.82;;;;;;;11.64;58.52;97476.16;4929792;29;20114;-62
2021/11/12 10:06:20;;;;;;;10.50;4.82;;;;;;;11.77;58.53;97485.94;4957484;28;20586;-64
2021/11/12 10:08:48;;;;;;;7.50;4.60;;;;;;;12.47;57.05;97545.53;4958576;28;20330;-62
2021/11/12 10:11:26;;;;;;;10.63;5.07;;;;;;;12.20;56.37;97443.91;4943807;29;20721;-62
2021/11/12 10:14:04;;;;;;;10.90;5.60;;;;;;;13.19;54.42;97538.03;4945784;29;20142;-63
2021/11/12 10:16:35;;;;;;;7.07;4.85;;;;;;;13.42;52.64;97528.41;4945573;28;20439;-61
2021/11/12 10:19:18;;;;;;;7.32;4.60;;;;;;;13.40;52.14;97519.63;4945485;29;20146;-60
2021/11/12 10:21:44;;;;;;;6.65;4.43;;;;;;;13.61;52.18;97508.78;4945002;29;20095;-61
2021/11/12 10:24:27;;;;;;;5.65;3.55;;;;;;;13.54;51.72;97496.75;4943897;29;20894;-62
2021/11/12 10:27:00;;;;;;;5.97;3.95;;;;;;;13.66;51.90;97508.47;4943943;29;20051;-64
2021/11/12 10:29:29;;;;;;;9.53;4.77;;;;;;;13.54;51.62;97486.44;4945385;29;20415;-64
2021/11/12 10:32:02;;;;;;;5.25;3.97;;;;;;;13.89;51.59;97505.56;4944978;29;20059;-65
2021/11/12 10:34:33;;;;;;;9.48;5.25;;;;;;;14.17;51.68;97491.13;4945087;29;20058;-63
2021/11/12 10:37:02;;;;;;;7.90;4.63;;;;;;;14.36;51.13;97491.75;4944608;28;20766;-64
2021/11/12 10:39:45;;;;;;;9.75;4.85;;;;;;;14.57;51.24;97494.72;4947500;29;20106;-64
2021/11/12 10:42:22;;;;;;;7.20;4.75;;;;;;;14.10;51.38;97466.75;4948476;29;20146;-65
2021/11/12 10:44:52;;;;;;;6.68;4.63;;;;;;;13.88;52.76;97489.22;4948121;29;20047;-65
2021/11/12 10:47:24;;;;;;;15.05;7.00;;;;;;;13.63;53.84;97477.78;4948129;29;20130;-64
2021/11/12 10:50:03;;;;;;;5.88;4.53;;;;;;;14.12;53.06;97481.13;4948214;29;20126;-65
2021/11/12 10:52:30;;;;;;;12.35;5.35;;;;;;;13.81;52.30;97388.88;4948845;28;20051;-65
2021/11/12 10:55:13;;;;;;;6.10;3.67;;;;;;;14.45;50.46;97480.25;4947054;28;20059;-63
2021/11/12 10:58:00;;;;;;;11.90;5.00;;;;;;;14.39;50.56;97470.66;4948471;28;20078;-65
2021/11/12 11:00:29;;;;;;;10.13;4.07;;;;;;;13.85;49.32;97381.38;4946131;28;20058;-65
2021/11/12 11:03:05;;;;;;;5.88;3.53;;;;;;;14.49;49.41;97458.81;4948488;28;20122;-67
2021/11/12 11:05:40;;;;;;;4.90;4.00;;;;;;;14.60;49.27;97466.06;4947638;28;20142;-66
2021/11/12 11:08:17;;;;;;;3.53;2.92;;;;;;;14.57;47.87;97463.25;4948701;28;20147;-64
2021/11/12 11:10:49;;;;;;;3.85;2.65;;;;;;;14.06;48.40;97362.06;4946618;29;20051;-62
2021/11/12 11:13:25;;;;;;;6.20;3.90;;;;;;;13.31;47.78;97335.47;4948003;28;20051;-62
2021/11/12 11:15:54;;;;;;;7.03;3.42;;;;;;;13.25;48.42;97311.97;4948064;28;20061;-65
2021/11/12 11:18:32;;;;;;;8.27;4.60;;;;;;;14.43;47.97;97460.34;4944490;28;20430;-70
2021/11/12 11:21:09;;;;;;;4.13;3.58;;;;;;;13.70;48.39;97444.47;4941066;29;20055;-68
2021/11/12 11:23:57;;;;;;;4.60;3.92;;;;;;;13.97;49.71;97464.66;4944648;29;20055;-65
2021/11/12 11:26:30;;;;;;;7.15;4.05;;;;;;;13.77;48.78;97407.56;4945352;29;20061;-71
2021/11/12 11:29:00;;;;;;;7.03;3.72;;;;;;;13.64;50.08;97409.81;4948591;28;20115;-66
2021/11/12 11:31:29;;;;;;;4.45;3.10;;;;;;;11.15;51.27;97059.22;4947038;28;20058;-74
2021/11/12 11:33:57;;;;;;;6.13;4.13;;;;;;;13.47;52.69;97424.31;4956966;28;20061;-66
2021/11/12 11:36:27;;;;;;;8.27;5.28;;;;;;;13.73;52.84;97387.22;4935894;28;20059;-65
2021/11/12 11:38:58;;;;;;;9.02;5.38;;;;;;;14.04;53.33;97436.84;4941635;28;20061;-62
2021/11/12 11:41:26;;;;;;;8.35;4.97;;;;;;;13.68;53.99;97380.00;4938730;28;20051;-64
2021/11/12 11:43:55;;;;;;;8.05;4.93;;;;;;;14.11;52.73;97431.34;4948225;28;20158;-67
2021/11/12 11:46:31;;;;;;;8.05;4.40;;;;;;;14.12;53.16;97433.75;4946944;28;20047;-69
2021/11/12 11:49:00;;;;;;;8.75;4.93;;;;;;;13.49;53.26;97358.75;4940407;29;20039;-62
2021/11/12 11:51:29;;;;;;;12.02;4.88;;;;;;;11.72;52.92;97018.06;4943795;28;20062;-64
2021/11/12 11:54:07;;;;;;;8.70;5.32;;;;;;;14.31;53.09;97425.22;4947522;29;20097;-68
2021/11/12 11:56:42;;;;;;;10.98;5.18;;;;;;;14.38;52.78;97425.28;4946698;29;20419;-64
2021/11/12 11:59:23;;;;;;;10.23;5.03;;;;;;;14.29;52.85;97426.78;4947365;29;20066;-63
2021/11/12 12:01:57;;;;;;;8.90;4.93;;;;;;;13.61;52.79;97341.75;4946718;28;20059;-65
2021/11/12 12:04:35;;;;;;;10.02;6.18;;;;;;;13.87;52.58;97416.00;4946204;28;20062;-61
2021/11/12 12:07:04;;;;;;;7.43;4.30;;;;;;;14.13;52.17;97423.44;4945821;28;20091;-62
2021/11/12 12:09:49;;;;;;;8.23;5.80;;;;;;;14.22;51.76;97432.25;4932603;29;20130;-64
2021/11/12 12:12:31;;;;;;;11.70;5.88;;;;;;;14.19;51.72;97427.47;4927424;29;20047;-62
2021/11/12 12:15:21;;;;;;;7.80;5.18;;;;;;;13.92;51.42;97435.16;4941970;29;20426;-65
2021/11/12 12:18:04;;;;;;;8.15;5.15;;;;;;;14.27;51.86;97451.44;4948589;28;20595;-65
2021/11/12 13:25:45;;;;;;;8.10;4.80;;;;;;;14.39;55.17;97426.06;4942228;29;20047;-62
2021/11/12 13:28:27;;;;;;;6.80;4.63;;;;;;;14.13;55.73;97418.63;4943298;28;20495;-61
2021/11/12 13:31:08;;;;;;;8.48;5.22;;;;;;;14.26;55.68;97427.53;4936507;28;20069;-61
2021/11/12 13:33:35;;;;;;;30.38;11.10;;;;;;;14.37;55.22;97425.66;4936460;29;20477;-62
2021/11/12 13:36:25;;;;;;;130.35;41.88;;;;;;;14.36;55.01;97427.66;4943379;29;20055;-65
2021/11/12 13:39:04;;;;;;;13.80;8.25;;;;;;;14.38;55.53;97413.31;4933471;29;20055;-67
2021/11/12 13:41:40;;;;;;;13.73;8.23;;;;;;;14.39;55.33;97421.28;4931506;28;20063;-66
2021/11/12 13:44:16;;;;;;;13.27;7.95;;;;;;;14.19;55.75;97410.75;4952766;28;20146;-65
2021/11/12 13:46:53;;;;;;;15.65;8.23;;;;;;;14.34;56.04;97418.03;4940741;28;20043;-68
2021/11/12 13:49:33;;;;;;;10.52;6.55;;;;;;;14.07;55.69;97391.53;4938615;28;20075;-64
2021/11/12 13:52:22;;;;;;;15.55;7.55;;;;;;;14.18;56.16;97404.34;4958984;28;20448;-65
2021/11/12 13:54:54;;;;;;;14.38;8.45;;;;;;;12.02;55.82;97077.09;4935184;29;20146;-63
2021/11/12 13:57:27;;;;;;;10.77;7.55;;;;;;;13.58;55.85;97325.81;4934892;29;20577;-64
2021/11/12 14:00:01;;;;;;;10.45;5.03;;;;;;;13.75;55.66;97340.31;4945461;29;20130;-68
2021/11/12 14:02:48;;;;;;;16.15;6.55;;;;;;;14.22;55.92;97429.47;4944807;28;20061;-70
2021/11/12 14:05:15;;;;;;;10.65;5.53;;;;;;;13.97;56.22;97411.72;4943324;29;20062;-68
2021/11/12 14:07:44;;;;;;;9.18;5.72;;;;;;;14.04;56.19;97428.50;4945688;28;20065;-63
2021/11/12 14:10:14;;;;;;;9.48;6.22;;;;;;;13.55;56.18;97337.72;4950437;28;20051;-63
2021/11/12 14:13:10;;;;;;;11.32;5.97;;;;;;;13.98;56.97;97432.81;4931334;28;20520;-65
2021/11/12 14:15:41;;;;;;;8.05;5.57;;;;;;;13.88;57.11;97428.75;4946605;28;20510;-64
2021/11/12 14:24:06;;;;;;;33.90;13.65;;;;;;;13.50;58.52;97435.47;4948008;29;20077;-62
2021/11/12 14:26:36;;;;;;;32.15;15.40;;;;;;;12.89;58.70;97354.44;4947069;28;20441;-68
2021/11/12 14:35:30;;;;;;;29.15;15.18;;;;;;;12.99;59.70;97409.34;4939589;29;20059;-66
2021/11/12 14:46:37;;;;;;;44.70;18.55;;;;;;;11.90;61.73;97351.38;4942635;28;20091;-64
2021/11/12 14:52:08;;;;;;;25.98;12.43;;;;;;;12.34;62.58;97449.69;4937476;29;20059;-61
2021/11/12 14:54:42;;;;;;;80.55;26.77;;;;;;;12.23;62.81;97453.44;4928769;29;20060;-61
2021/11/12 14:59:52;;;;;;;35.90;14.20;;;;;;;11.82;64.63;97455.09;4948356;28;20055;-61
2021/11/12 15:02:19;;;;;;;42.88;16.25;;;;;;;11.67;65.45;97458.78;4948416;28;20047;-61
2021/11/12 15:04:46;;;;;;;49.53;21.35;;;;;;;11.34;66.26;97427.97;4947096;29;20070;-60
2021/11/12 15:07:20;;;;;;;95.90;40.55;;;;;;;11.27;68.01;97456.34;4946670;28;20057;-61
2021/11/12 15:09:49;;;;;;;107.80;45.67;;;;;;;10.37;68.41;97390.22;4962681;28;20047;-61
2021/11/12 15:12:16;;;;;;;122.75;49.90;;;;;;;11.03;69.26;97461.38;4947596;29;20291;-61
2021/11/12 15:14:49;;;;;;;104.47;47.20;;;;;;;10.54;70.88;97434.16;4946994;29;20154;-60
2021/11/12 15:17:16;;;;;;;88.20;36.53;;;;;;;10.67;71.79;97473.63;4947442;29;20497;-61
2021/11/12 15:19:46;;;;;;;82.05;38.90;;;;;;;9.77;72.38;97404.53;4946678;29;20069;-60
2021/11/12 15:30:07;;;;;;;71.15;31.77;;;;;;;10.16;73.64;97478.31;4945878;28;20065;-61
2021/11/12 15:32:36;;;;;;;61.58;30.08;;;;;;;9.88;75.26;97483.06;4947887;28;20510;-60
2021/11/12 15:35:09;;;;;;;102.82;43.58;;;;;;;9.84;75.51;97498.78;4946313;29;20074;-63
2021/11/12 15:37:52;;;;;;;104.73;46.77;;;;;;;9.30;76.19;97439.59;4948114;29;20067;-61
2021/11/12 15:40:26;;;;;;;104.22;44.55;;;;;;;9.51;77.42;97503.78;4939174;28;20055;-61
2021/11/12 15:45:37;;;;;;;75.65;34.55;;;;;;;9.36;78.01;97503.75;4947785;29;20065;-61
2021/11/12 15:48:10;;;;;;;95.35;41.15;;;;;;;8.65;78.73;97406.88;4947607;29;20080;-61
2021/11/12 16:14:22;;;;;;;67.43;36.22;;;;;;;8.41;83.03;97528.41;4927198;29;20062;-62
2021/11/12 16:27:43;;;;;;;74.35;32.30;;;;;;;8.14;84.35;97551.13;4927365;29;20146;-61
2021/11/12 16:30:12;;;;;;;49.88;25.17;;;;;;;7.63;84.77;97498.09;4927670;29;20051;-61
2021/11/12 16:32:45;;;;;;;39.00;21.63;;;;;;;7.91;85.51;97569.19;4926058;29;20067;-62
2021/11/12 16:35:17;;;;;;;34.70;18.33;;;;;;;7.49;85.14;97502.34;4926184;29;20366;-61
2021/11/12 16:37:46;;;;;;;38.28;20.30;;;;;;;7.81;85.67;97553.88;4925525;29;20063;-63
2021/11/12 16:40:22;;;;;;;40.20;20.67;;;;;;;7.81;84.98;97553.09;4926416;29;20063;-63
2021/11/12 16:51:05;;;;;;;40.10;15.95;;;;;;;7.51;86.90;97555.97;4945643;28;20055;-60
2021/11/12 17:04:13;;;;;;;32.17;16.40;;;;;;;7.14;89.17;97570.72;4945882;28;20067;-61
2021/11/12 17:11:49;;;;;;;39.30;18.77;;;;;;;6.62;90.32;97521.81;4945745;28;20441;-61
2021/11/12 17:46:49;;;;;;;71.45;35.20;;;;;;;6.25;91.33;97567.47;4945260;28;20065;-61
2021/11/12 18:05:26;;;;;;;70.13;28.10;;;;;;;6.18;91.46;97569.91;4921846;29;20163;-62
2021/11/12 18:16:15;;;;;;;34.42;14.50;;;;;;;5.88;92.43;97568.25;4926207;29;20070;-61
2021/11/12 21:48:41;;;;;;;38.63;17.10;;;;;;;3.39;98.39;97578.88;4934799;29;20574;-61
2021/11/12 21:51:11;;;;;;;32.95;17.55;;;;;;;3.38;97.85;97588.22;4945504;28;20069;-61
2021/11/12 21:53:39;;;;;;;35.53;17.25;;;;;;;2.79;98.04;97487.31;4945725;28;20488;-61
2021/11/12 21:56:06;;;;;;;28.10;13.98;;;;;;;3.35;98.36;97591.56;4945490;29;20597;-61
2021/11/12 21:58:33;;;;;;;34.15;15.77;;;;;;;2.88;98.51;97504.59;4945998;28;20070;-63
2021/11/12 22:01:02;;;;;;;28.20;12.88;;;;;;;3.22;100.00;97567.81;4945208;28;20047;-61
2021/11/12 22:03:29;;;;;;;30.63;13.02;;;;;;;3.25;100.00;97574.59;4945872;28;20059;-61
2021/11/12 22:05:59;;;;;;;40.05;15.45;;;;;;;2.99;100.00;97530.59;4945335;28;20166;-62
2021/11/12 22:08:28;;;;;;;36.30;15.45;;;;;;;2.35;100.00;97462.63;4960321;28;20059;-61
2021/11/12 22:11:02;;;;;;;38.35;16.33;;;;;;;2.61;100.00;97469.94;4945386;28;20055;-61
2021/11/12 22:13:30;;;;;;;29.85;13.73;;;;;;;2.99;100.00;97563.41;4945883;29;20058;-61
2021/11/12 22:15:57;;;;;;;26.80;10.70;;;;;;;3.14;100.00;97557.59;4943619;29;20118;-61
2021/11/12 22:18:25;;;;;;;22.48;10.40;;;;;;;3.18;100.00;97566.81;4945582;29;20052;-61
2021/11/12 22:20:53;;;;;;;27.80;11.23;;;;;;;3.09;100.00;97563.19;4945505;29;20597;-60
2021/11/12 22:23:21;;;;;;;25.67;10.73;;;;;;;2.51;100.00;97485.78;4945602;29;20097;-61
2021/11/12 22:25:49;;;;;;;20.98;9.75;;;;;;;1.84;100.00;97421.13;4944721;28;20498;-60
2021/11/12 22:28:16;;;;;;;25.70;9.93;;;;;;;3.04;100.00;97560.56;4945838;29;20051;-63
2021/11/12 22:30:44;;;;;;;20.65;9.57;;;;;;;-0.16;100.00;97069.66;4943467;29;20107;-61
2021/11/12 22:33:12;;;;;;;19.70;8.85;;;;;;;3.01;100.00;97555.72;4945545;28;20051;-62